createdAt,value
2023-03-22T00:01:46.801Z,100.00
2023-03-22T00:04:13.385Z,100.00
2023-03-22T00:06:39.904Z,100.00
2023-03-22T00:09:06.443Z,100.00
2023-03-22T00:11:32.942Z,100.00
2023-03-22T00:13:59.700Z,100.00
2023-03-22T00:16:26.595Z,100.00
2023-03-22T00:18:53.174Z,100.00
2023-03-22T00:21:19.894Z,100.00
2023-03-22T00:23:46.441Z,100.00
2023-03-22T00:26:14.233Z,100.00
2023-03-22T00:28:40.880Z,100.00
2023-03-22T00:31:08.222Z,100.00
2023-03-22T00:33:35.318Z,100.00
2023-03-22T00:36:04.976Z,100.00
2023-03-22T00:38:42.613Z,100.00
2023-03-22T00:41:14.335Z,100.00
2023-03-22T00:43:41.163Z,100.00
2023-03-22T00:46:08.518Z,100.00
2023-03-22T00:48:35.286Z,100.00
2023-03-22T00:51:01.827Z,100.00
2023-03-22T00:53:32.882Z,100.00
2023-03-22T00:55:59.967Z,100.00
2023-03-22T00:58:26.498Z,100.00
2023-03-22T01:00:53.153Z,100.00
2023-03-22T01:03:21.840Z,100.00
2023-03-22T01:05:51.652Z,100.00
2023-03-22T01:08:18.138Z,100.00
2023-03-22T01:10:45.353Z,100.00
2023-03-22T01:13:12.475Z,100.00
2023-03-22T01:15:39.030Z,100.00
2023-03-22T01:18:05.812Z,100.00
2023-03-22T01:20:32.306Z,100.00
2023-03-22T01:22:59.482Z,100.00
2023-03-22T01:25:26.038Z,100.00
2023-03-22T01:27:52.539Z,100.00
2023-03-22T01:30:19.308Z,100.00
2023-03-22T01:32:45.753Z,100.00
2023-03-22T01:35:12.339Z,100.00
2023-03-22T01:37:38.890Z,100.00
2023-03-22T01:40:06.613Z,100.00
2023-03-22T01:42:33.044Z,100.00
2023-03-22T01:45:14.517Z,100.00
2023-03-22T01:47:48.039Z,100.00
2023-03-22T01:50:15.044Z,100.00
2023-03-22T01:52:41.527Z,100.00
2023-03-22T01:55:09.373Z,100.00
2023-03-22T01:57:39.429Z,100.00
2023-03-22T02:00:15.244Z,100.00
2023-03-22T02:02:43.639Z,100.00
2023-03-22T02:05:10.282Z,100.00
2023-03-22T02:07:37.739Z,100.00
2023-03-22T02:10:05.152Z,100.00
2023-03-22T02:12:37.331Z,100.00
2023-03-22T02:15:19.016Z,100.00
2023-03-22T02:18:06.644Z,100.00
2023-03-22T02:20:52.918Z,100.00
2023-03-22T02:23:25.525Z,100.00
2023-03-22T02:26:00.923Z,100.00
2023-03-22T02:28:46.308Z,100.00
2023-03-22T02:31:16.871Z,100.00
2023-03-22T02:34:06.114Z,100.00
2023-03-22T02:36:42.569Z,100.00
2023-03-22T02:39:36.266Z,100.00
2023-03-22T02:42:10.214Z,100.00
2023-03-22T02:44:46.762Z,100.00
2023-03-22T02:47:23.748Z,100.00
2023-03-22T02:49:57.020Z,100.00
2023-03-22T02:53:02.970Z,100.00
2023-03-22T02:55:52.200Z,100.00
2023-03-22T02:58:47.189Z,100.00
2023-03-22T03:01:21.305Z,100.00
2023-03-22T03:03:50.029Z,100.00
2023-03-22T03:06:22.144Z,100.00
2023-03-22T03:08:50.900Z,100.00
2023-03-22T03:11:17.981Z,100.00
2023-03-22T03:13:48.025Z,100.00
2023-03-22T03:16:17.494Z,100.00
2023-03-22T03:18:48.474Z,100.00
2023-03-22T03:21:37.087Z,100.00
2023-03-22T03:24:06.251Z,100.00
2023-03-22T03:26:53.937Z,100.00
2023-03-22T03:29:33.337Z,100.00
2023-03-22T03:32:21.720Z,100.00
2023-03-22T03:34:57.103Z,100.00
2023-03-22T03:37:28.858Z,100.00
2023-03-22T03:40:09.559Z,100.00
2023-03-22T03:42:38.865Z,100.00
2023-03-22T03:45:06.452Z,100.00
2023-03-22T03:47:34.481Z,100.00
2023-03-22T03:50:00.961Z,100.00
2023-03-22T03:52:27.576Z,100.00
2023-03-22T03:54:55.282Z,100.00
2023-03-22T03:57:22.087Z,100.00
2023-03-22T03:59:48.842Z,100.00
2023-03-22T04:02:16.717Z,100.00
2023-03-22T04:04:43.331Z,100.00
2023-03-22T04:07:10.385Z,100.00
2023-03-22T04:09:39.072Z,100.00
2023-03-22T04:12:05.976Z,100.00
2023-03-22T04:14:32.352Z,100.00
2023-03-22T04:16:58.953Z,100.00
2023-03-22T04:19:25.938Z,100.00
2023-03-22T04:21:53.133Z,100.00
2023-03-22T04:24:21.889Z,100.00
2023-03-22T04:26:48.745Z,100.00
2023-03-22T04:29:16.076Z,100.00
2023-03-22T04:31:42.700Z,100.00
2023-03-22T04:34:09.232Z,100.00
2023-03-22T04:36:39.429Z,100.00
2023-03-22T04:39:10.465Z,100.00
2023-03-22T04:41:37.500Z,100.00
2023-03-22T04:44:05.445Z,100.00
2023-03-22T04:46:34.165Z,100.00
2023-03-22T04:49:01.029Z,100.00
2023-03-22T04:51:28.124Z,100.00
2023-03-22T04:53:54.752Z,100.00
2023-03-22T04:56:21.692Z,100.00
2023-03-22T04:58:48.174Z,100.00
2023-03-22T05:01:16.178Z,100.00
2023-03-22T05:03:47.257Z,100.00
2023-03-22T05:06:14.574Z,100.00
2023-03-22T05:08:41.325Z,100.00
2023-03-22T05:11:14.068Z,100.00
2023-03-22T05:13:40.978Z,100.00
2023-03-22T05:16:08.595Z,100.00
2023-03-22T05:18:37.972Z,100.00
2023-03-22T05:21:06.682Z,100.00
2023-03-22T05:23:33.316Z,100.00
2023-03-22T05:26:01.629Z,100.00
2023-03-22T05:28:28.707Z,100.00
2023-03-22T05:30:57.107Z,100.00
2023-03-22T05:33:23.871Z,100.00
2023-03-22T05:35:51.200Z,100.00
2023-03-22T05:38:17.918Z,100.00
2023-03-22T05:40:45.220Z,100.00
2023-03-22T05:43:12.117Z,100.00
2023-03-22T05:45:38.706Z,100.00
2023-03-22T05:48:05.430Z,100.00
2023-03-22T05:50:32.344Z,100.00
2023-03-22T05:52:59.183Z,100.00
2023-03-22T05:55:25.784Z,100.00
2023-03-22T05:57:54.050Z,100.00
2023-03-22T06:00:21.810Z,100.00
2023-03-22T06:02:49.054Z,100.00
2023-03-22T06:05:17.022Z,100.00
2023-03-22T06:07:43.811Z,100.00
2023-03-22T06:10:15.168Z,100.00
2023-03-22T06:12:41.733Z,100.00
2023-03-22T06:15:09.217Z,100.00
2023-03-22T06:17:36.486Z,100.00
2023-03-22T06:20:09.315Z,100.00
2023-03-22T06:22:35.872Z,100.00
2023-03-22T06:25:02.765Z,100.00
2023-03-22T06:27:29.574Z,100.00
2023-03-22T06:29:55.959Z,100.00
2023-03-22T06:32:23.613Z,100.00
2023-03-22T06:34:59.097Z,100.00
2023-03-22T06:37:25.614Z,100.00
2023-03-22T06:39:52.271Z,100.00
2023-03-22T06:42:19.158Z,100.00
2023-03-22T06:44:45.675Z,100.00
2023-03-22T06:47:12.458Z,100.00
2023-03-22T06:49:39.229Z,100.00
2023-03-22T06:52:05.810Z,100.00
2023-03-22T06:54:32.203Z,100.00
2023-03-22T06:56:58.674Z,100.00
2023-03-22T06:59:25.224Z,100.00
2023-03-22T07:01:51.644Z,100.00
2023-03-22T07:04:18.448Z,100.00
2023-03-22T07:06:45.051Z,100.00
2023-03-22T07:09:12.257Z,100.00
2023-03-22T07:11:38.833Z,100.00
2023-03-22T07:14:05.403Z,100.00
2023-03-22T07:16:31.894Z,100.00
2023-03-22T07:18:58.454Z,100.00
2023-03-22T07:21:24.863Z,100.00
2023-03-22T07:23:51.263Z,100.00
2023-03-22T07:26:17.793Z,100.00
2023-03-22T07:28:44.613Z,100.00
2023-03-22T07:31:12.305Z,100.00
2023-03-22T07:33:39.504Z,100.00
2023-03-22T07:36:07.400Z,100.00
2023-03-22T07:38:34.727Z,100.00
2023-03-22T07:41:01.204Z,100.00
2023-03-22T07:43:27.763Z,100.00
2023-03-22T07:45:54.386Z,100.00
2023-03-22T07:48:22.780Z,100.00
2023-03-22T07:50:49.847Z,100.00
2023-03-22T07:53:16.310Z,100.00
2023-03-22T07:55:42.744Z,100.00
2023-03-22T07:58:09.328Z,100.00
2023-03-22T08:00:35.801Z,100.00
2023-03-22T08:03:02.302Z,100.00
2023-03-22T08:05:28.933Z,100.00
2023-03-22T08:07:56.821Z,100.00
2023-03-22T08:10:23.681Z,100.00
2023-03-22T08:12:50.354Z,100.00
2023-03-22T08:15:16.905Z,100.00
2023-03-22T08:17:43.340Z,100.00
2023-03-22T08:20:10.387Z,100.00
2023-03-22T08:22:36.935Z,100.00
2023-03-22T08:25:07.207Z,100.00
2023-03-22T08:27:33.657Z,100.00
2023-03-22T08:30:00.795Z,100.00
2023-03-22T08:32:27.234Z,100.00
2023-03-22T08:34:53.709Z,100.00
2023-03-22T08:37:20.362Z,100.00
2023-03-22T08:39:47.105Z,100.00
2023-03-22T08:42:13.647Z,100.00
2023-03-22T08:44:40.139Z,100.00
2023-03-22T08:47:07.248Z,100.00
2023-03-22T08:49:33.826Z,100.00
2023-03-22T08:52:00.426Z,100.00
2023-03-22T08:54:33.526Z,100.00
2023-03-22T08:57:00.680Z,100.00
2023-03-22T08:59:27.863Z,100.00
2023-03-22T09:01:54.355Z,100.00
2023-03-22T09:04:20.973Z,100.00
2023-03-22T09:06:47.456Z,100.00
2023-03-22T09:09:14.607Z,100.00
2023-03-22T09:11:42.683Z,100.00
2023-03-22T09:14:09.986Z,100.00
2023-03-22T09:16:36.625Z,97.00
2023-03-22T09:19:03.612Z,93.79
2023-03-22T09:21:30.585Z,98.54
2023-03-22T09:23:57.205Z,93.86
2023-03-22T09:26:24.289Z,87.55
2023-03-22T09:28:51.144Z,89.92
2023-03-22T09:31:20.556Z,86.20
2023-03-22T09:33:47.754Z,94.30
2023-03-22T09:36:14.330Z,92.74
2023-03-22T09:38:42.209Z,86.85
2023-03-22T09:41:47.853Z,84.98
2023-03-22T09:44:19.774Z,87.62
2023-03-22T09:46:49.663Z,85.43
2023-03-22T09:49:22.602Z,89.68
2023-03-22T09:51:51.002Z,86.95
2023-03-22T09:54:38.159Z,82.94
2023-03-22T09:57:07.670Z,80.03
2023-03-22T09:59:39.959Z,80.82
2023-03-22T10:02:52.105Z,77.60
2023-03-22T10:05:50.721Z,77.56
2023-03-22T10:08:26.109Z,79.47
2023-03-22T10:10:52.760Z,80.50
2023-03-22T10:13:32.852Z,75.56
2023-03-22T10:16:03.974Z,73.40
2023-03-22T10:18:36.513Z,73.60
2023-03-22T10:21:06.123Z,70.59
2023-03-22T10:23:40.876Z,69.98
2023-03-22T10:26:09.179Z,70.37
2023-03-22T10:28:41.206Z,70.22
2023-03-22T10:31:14.426Z,69.55
2023-03-22T10:33:50.356Z,69.82
2023-03-22T10:36:19.142Z,67.51
2023-03-22T10:38:49.003Z,68.50
2023-03-22T10:41:20.709Z,69.40
2023-03-22T10:43:54.372Z,69.81
2023-03-22T10:46:31.493Z,68.42
2023-03-22T10:48:59.600Z,68.53
2023-03-22T10:51:46.415Z,68.06
2023-03-22T10:54:15.008Z,66.52
2023-03-22T10:56:41.541Z,67.24
2023-03-22T10:59:08.693Z,67.04
2023-03-22T11:01:40.004Z,66.24
2023-03-22T11:04:09.761Z,65.75
2023-03-22T11:06:44.351Z,67.07
2023-03-22T11:09:20.659Z,69.86
2023-03-22T11:11:56.137Z,68.62
2023-03-22T11:14:31.842Z,65.72
2023-03-22T11:17:06.215Z,66.90
2023-03-22T11:19:37.768Z,65.37
2023-03-22T11:22:07.164Z,68.85
2023-03-22T11:24:34.418Z,67.93
2023-03-22T11:27:24.477Z,69.02
2023-03-22T11:29:53.738Z,69.63
2023-03-22T11:32:37.639Z,68.42
2023-03-22T11:35:26.978Z,68.06
2023-03-22T11:37:55.831Z,67.05
2023-03-22T11:40:27.396Z,66.32
2023-03-22T11:43:16.982Z,64.38
2023-03-22T11:45:46.156Z,67.67
2023-03-22T11:48:18.680Z,68.44
2023-03-22T11:50:46.557Z,68.60
2023-03-22T11:53:16.584Z,68.61
2023-03-22T11:55:43.786Z,69.66
2023-03-22T11:58:41.572Z,69.40
2023-03-22T12:01:12.428Z,69.32
2023-03-22T12:03:40.666Z,66.49
2023-03-22T12:06:32.349Z,68.24
2023-03-22T12:09:06.009Z,68.30
2023-03-22T12:11:39.665Z,67.94
2023-03-22T12:14:12.633Z,67.09
2023-03-22T12:16:46.269Z,68.54
2023-03-22T12:19:36.714Z,68.50
2023-03-22T12:22:05.412Z,69.60
2023-03-22T12:24:32.375Z,69.93
2023-03-22T12:27:03.137Z,68.16
2023-03-22T12:29:29.625Z,66.81
2023-03-22T12:32:12.599Z,66.01
2023-03-22T12:34:42.104Z,65.33
2023-03-22T12:37:13.400Z,65.89
2023-03-22T12:39:49.717Z,62.84
2023-03-22T12:42:40.456Z,62.74
2023-03-22T12:45:18.641Z,62.70
2023-03-22T12:47:52.333Z,60.87
2023-03-22T12:50:21.916Z,58.82
2023-03-22T12:52:50.417Z,58.22
2023-03-22T12:55:24.898Z,60.41
2023-03-22T12:57:54.481Z,60.51
2023-03-22T13:00:37.758Z,60.22
2023-03-22T13:03:17.309Z,60.15
2023-03-22T13:06:00.340Z,59.90
2023-03-22T13:09:04.671Z,58.88
2023-03-22T13:11:31.183Z,57.18
2023-03-22T13:13:57.810Z,55.80
2023-03-22T13:16:42.281Z,57.02
2023-03-22T13:19:27.877Z,56.77
2023-03-22T13:22:33.894Z,57.94
2023-03-22T13:25:13.353Z,57.58
2023-03-22T13:27:45.558Z,57.15
2023-03-22T13:30:21.714Z,57.57
2023-03-22T13:32:56.182Z,58.95
2023-03-22T13:35:28.606Z,60.13
2023-03-22T13:38:02.680Z,60.86
2023-03-22T13:40:50.671Z,60.64
2023-03-22T13:43:17.073Z,61.04
2023-03-22T13:46:25.956Z,61.02
2023-03-22T13:49:01.838Z,62.12
2023-03-22T13:51:31.951Z,60.07
2023-03-22T13:54:16.150Z,60.98
2023-03-22T13:56:43.188Z,62.30
2023-03-22T13:59:31.354Z,60.07
2023-03-22T14:02:22.046Z,62.72
2023-03-22T14:04:51.214Z,62.13
2023-03-22T14:07:31.671Z,63.39
2023-03-22T14:10:06.555Z,63.44
2023-03-22T14:12:41.989Z,60.86
2023-03-22T14:15:09.026Z,60.13
2023-03-22T14:18:16.899Z,60.24
2023-03-22T14:20:43.997Z,59.36
